sensor_id;sensor_type;location;lat;lon;timestamp;P1;durP1;ratioP1;P2;durP2;ratioP2
9142;SDS011;54072;47.410;8.446;2023-07-29T00:01:00;7.17;;;5.60;;
9142;SDS011;54072;47.410;8.446;2023-07-29T00:03:28;7.17;;;5.03;;
9142;SDS011;54072;47.410;8.446;2023-07-29T00:05:56;5.83;;;4.93;;
9142;SDS011;54072;47.410;8.446;2023-07-29T00:08:24;6.20;;;5.30;;
9142;SDS011;54072;47.410;8.446;2023-07-29T00:10:51;6.47;;;5.20;;
9142;SDS011;54072;47.410;8.446;2023-07-29T00:13:19;6.13;;;4.80;;
9142;SDS011;54072;47.410;8.446;2023-07-29T00:15:49;5.70;;;4.90;;
9142;SDS011;54072;47.410;8.446;2023-07-29T00:18:16;6.77;;;5.00;;
9142;SDS011;54072;47.410;8.446;2023-07-29T00:20:44;5.90;;;4.80;;
9142;SDS011;54072;47.410;8.446;2023-07-29T00:23:11;5.93;;;4.97;;
9142;SDS011;54072;47.410;8.446;2023-07-29T00:25:39;7.80;;;4.77;;
9142;SDS011;54072;47.410;8.446;2023-07-29T00:28:06;6.57;;;5.17;;
9142;SDS011;54072;47.410;8.446;2023-07-29T00:30:34;7.57;;;5.60;;
9142;SDS011;54072;47.410;8.446;2023-07-29T00:33:03;6.20;;;4.87;;
9142;SDS011;54072;47.410;8.446;2023-07-29T00:35:30;6.80;;;4.97;;
9142;SDS011;54072;47.410;8.446;2023-07-29T00:37:58;6.57;;;4.70;;
9142;SDS011;54072;47.410;8.446;2023-07-29T00:40:25;8.27;;;4.97;;
9142;SDS011;54072;47.410;8.446;2023-07-29T00:42:54;7.50;;;5.00;;
9142;SDS011;54072;47.410;8.446;2023-07-29T00:45:22;6.87;;;4.93;;
9142;SDS011;54072;47.410;8.446;2023-07-29T00:47:50;5.67;;;4.87;;
9142;SDS011;54072;47.410;8.446;2023-07-29T00:50:19;5.80;;;4.80;;
9142;SDS011;54072;47.410;8.446;2023-07-29T00:52:48;5.50;;;4.90;;
9142;SDS011;54072;47.410;8.446;2023-07-29T00:55:15;7.73;;;5.50;;
9142;SDS011;54072;47.410;8.446;2023-07-29T00:57:43;7.73;;;5.23;;
9142;SDS011;54072;47.410;8.446;2023-07-29T01:00:14;9.13;;;5.30;;
9142;SDS011;54072;47.410;8.446;2023-07-29T01:02:42;7.33;;;5.63;;
9142;SDS011;54072;47.410;8.446;2023-07-29T01:05:10;7.90;;;5.60;;
9142;SDS011;54072;47.410;8.446;2023-07-29T01:07:43;6.17;;;5.27;;
9142;SDS011;54072;47.410;8.446;2023-07-29T01:10:13;8.40;;;5.30;;
9142;SDS011;54072;47.410;8.446;2023-07-29T01:12:47;6.27;;;5.20;;
9142;SDS011;54072;47.410;8.446;2023-07-29T01:15:16;10.10;;;5.70;;
9142;SDS011;54072;47.410;8.446;2023-07-29T01:17:46;6.53;;;5.33;;
9142;SDS011;54072;47.410;8.446;2023-07-29T01:20:15;9.10;;;5.53;;
9142;SDS011;54072;47.410;8.446;2023-07-29T01:22:45;6.17;;;5.57;;
9142;SDS011;54072;47.410;8.446;2023-07-29T01:25:13;6.13;;;5.40;;
9142;SDS011;54072;47.410;8.446;2023-07-29T01:27:41;6.50;;;5.47;;
9142;SDS011;54072;47.410;8.446;2023-07-29T01:30:09;7.93;;;5.03;;
9142;SDS011;54072;47.410;8.446;2023-07-29T01:32:38;5.87;;;5.13;;
9142;SDS011;54072;47.410;8.446;2023-07-29T01:35:10;7.00;;;5.40;;
9142;SDS011;54072;47.410;8.446;2023-07-29T01:37:39;8.33;;;5.67;;
9142;SDS011;54072;47.410;8.446;2023-07-29T01:40:08;6.50;;;5.80;;
9142;SDS011;54072;47.410;8.446;2023-07-29T01:42:38;7.50;;;5.30;;
9142;SDS011;54072;47.410;8.446;2023-07-29T01:45:06;6.47;;;5.70;;
9142;SDS011;54072;47.410;8.446;2023-07-29T01:47:33;10.30;;;5.73;;
9142;SDS011;54072;47.410;8.446;2023-07-29T01:50:01;6.33;;;5.30;;
9142;SDS011;54072;47.410;8.446;2023-07-29T01:52:29;7.60;;;5.77;;
9142;SDS011;54072;47.410;8.446;2023-07-29T01:54:57;7.43;;;5.80;;
9142;SDS011;54072;47.410;8.446;2023-07-29T01:57:24;6.83;;;5.63;;
9142;SDS011;54072;47.410;8.446;2023-07-29T01:59:53;8.47;;;5.77;;
9142;SDS011;54072;47.410;8.446;2023-07-29T02:02:21;8.57;;;5.63;;
9142;SDS011;54072;47.410;8.446;2023-07-29T02:04:48;6.97;;;5.83;;
9142;SDS011;54072;47.410;8.446;2023-07-29T02:07:18;7.53;;;6.30;;
9142;SDS011;54072;47.410;8.446;2023-07-29T02:09:46;6.63;;;5.67;;
9142;SDS011;54072;47.410;8.446;2023-07-29T02:12:13;9.40;;;6.10;;
9142;SDS011;54072;47.410;8.446;2023-07-29T02:14:41;8.77;;;6.20;;
9142;SDS011;54072;47.410;8.446;2023-07-29T02:17:10;9.73;;;5.87;;
9142;SDS011;54072;47.410;8.446;2023-07-29T02:19:37;7.27;;;5.63;;
9142;SDS011;54072;47.410;8.446;2023-07-29T02:22:05;9.20;;;5.90;;
9142;SDS011;54072;47.410;8.446;2023-07-29T02:24:32;7.03;;;5.87;;
9142;SDS011;54072;47.410;8.446;2023-07-29T02:27:00;7.53;;;5.87;;
9142;SDS011;54072;47.410;8.446;2023-07-29T02:29:27;7.57;;;6.00;;
9142;SDS011;54072;47.410;8.446;2023-07-29T02:31:56;7.30;;;6.07;;
9142;SDS011;54072;47.410;8.446;2023-07-29T02:34:25;8.77;;;6.40;;
9142;SDS011;54072;47.410;8.446;2023-07-29T02:36:53;8.93;;;6.23;;
9142;SDS011;54072;47.410;8.446;2023-07-29T02:39:20;7.77;;;5.97;;
9142;SDS011;54072;47.410;8.446;2023-07-29T02:41:49;10.47;;;6.13;;
9142;SDS011;54072;47.410;8.446;2023-07-29T02:44:17;9.30;;;6.57;;
9142;SDS011;54072;47.410;8.446;2023-07-29T02:46:45;8.23;;;6.03;;
9142;SDS011;54072;47.410;8.446;2023-07-29T02:49:13;6.63;;;6.03;;
9142;SDS011;54072;47.410;8.446;2023-07-29T02:51:42;7.37;;;5.80;;
9142;SDS011;54072;47.410;8.446;2023-07-29T02:54:09;6.50;;;5.90;;
9142;SDS011;54072;47.410;8.446;2023-07-29T02:56:37;7.57;;;6.00;;
9142;SDS011;54072;47.410;8.446;2023-07-29T02:59:04;8.80;;;6.00;;
9142;SDS011;54072;47.410;8.446;2023-07-29T03:01:32;6.47;;;5.67;;
9142;SDS011;54072;47.410;8.446;2023-07-29T03:04:00;6.37;;;5.53;;
9142;SDS011;54072;47.410;8.446;2023-07-29T03:06:28;6.17;;;5.57;;
9142;SDS011;54072;47.410;8.446;2023-07-29T03:08:56;6.27;;;5.63;;
9142;SDS011;54072;47.410;8.446;2023-07-29T03:11:24;7.63;;;6.00;;
9142;SDS011;54072;47.410;8.446;2023-07-29T03:13:52;6.93;;;6.23;;
9142;SDS011;54072;47.410;8.446;2023-07-29T03:16:19;7.27;;;6.57;;
9142;SDS011;54072;47.410;8.446;2023-07-29T03:18:47;8.70;;;6.73;;
9142;SDS011;54072;47.410;8.446;2023-07-29T03:21:15;7.03;;;5.90;;
9142;SDS011;54072;47.410;8.446;2023-07-29T03:23:43;7.80;;;6.20;;
9142;SDS011;54072;47.410;8.446;2023-07-29T03:26:11;8.93;;;6.10;;
9142;SDS011;54072;47.410;8.446;2023-07-29T03:28:40;7.10;;;6.07;;
9142;SDS011;54072;47.410;8.446;2023-07-29T03:31:08;7.77;;;6.07;;
9142;SDS011;54072;47.410;8.446;2023-07-29T03:33:35;10.37;;;5.83;;
9142;SDS011;54072;47.410;8.446;2023-07-29T03:36:03;6.83;;;6.13;;
9142;SDS011;54072;47.410;8.446;2023-07-29T03:38:31;6.70;;;5.93;;
9142;SDS011;54072;47.410;8.446;2023-07-29T03:41:01;7.47;;;6.03;;
9142;SDS011;54072;47.410;8.446;2023-07-29T03:43:30;7.07;;;6.00;;
9142;SDS011;54072;47.410;8.446;2023-07-29T03:45:58;7.83;;;6.43;;
9142;SDS011;54072;47.410;8.446;2023-07-29T03:48:26;6.60;;;5.90;;
9142;SDS011;54072;47.410;8.446;2023-07-29T03:50:53;8.03;;;6.20;;
9142;SDS011;54072;47.410;8.446;2023-07-29T03:53:21;7.30;;;6.20;;
9142;SDS011;54072;47.410;8.446;2023-07-29T03:55:49;6.93;;;6.13;;
9142;SDS011;54072;47.410;8.446;2023-07-29T03:58:17;8.47;;;6.13;;
9142;SDS011;54072;47.410;8.446;2023-07-29T04:00:46;6.97;;;5.80;;
9142;SDS011;54072;47.410;8.446;2023-07-29T04:03:14;7.10;;;5.83;;
9142;SDS011;54072;47.410;8.446;2023-07-29T04:05:43;5.83;;;5.27;;
9142;SDS011;54072;47.410;8.446;2023-07-29T04:08:11;6.60;;;5.70;;
9142;SDS011;54072;47.410;8.446;2023-07-29T04:10:38;6.40;;;5.80;;
9142;SDS011;54072;47.410;8.446;2023-07-29T04:13:06;6.10;;;5.50;;
9142;SDS011;54072;47.410;8.446;2023-07-29T04:15:33;7.57;;;6.37;;
9142;SDS011;54072;47.410;8.446;2023-07-29T04:18:02;8.67;;;5.97;;
9142;SDS011;54072;47.410;8.446;2023-07-29T04:20:30;7.80;;;6.37;;
9142;SDS011;54072;47.410;8.446;2023-07-29T04:22:57;7.80;;;6.03;;
9142;SDS011;54072;47.410;8.446;2023-07-29T04:25:25;8.83;;;6.40;;
9142;SDS011;54072;47.410;8.446;2023-07-29T04:27:52;8.00;;;5.97;;
9142;SDS011;54072;47.410;8.446;2023-07-29T04:30:20;8.07;;;5.77;;
9142;SDS011;54072;47.410;8.446;2023-07-29T04:32:48;7.40;;;6.20;;
9142;SDS011;54072;47.410;8.446;2023-07-29T04:35:17;6.40;;;5.70;;
9142;SDS011;54072;47.410;8.446;2023-07-29T04:37:45;6.67;;;5.73;;
9142;SDS011;54072;47.410;8.446;2023-07-29T04:40:14;7.17;;;6.47;;
9142;SDS011;54072;47.410;8.446;2023-07-29T04:42:41;7.03;;;6.27;;
9142;SDS011;54072;47.410;8.446;2023-07-29T04:45:09;7.10;;;6.13;;
9142;SDS011;54072;47.410;8.446;2023-07-29T04:47:37;7.77;;;6.30;;
9142;SDS011;54072;47.410;8.446;2023-07-29T04:50:05;7.80;;;6.10;;
9142;SDS011;54072;47.410;8.446;2023-07-29T04:52:34;7.87;;;6.53;;
9142;SDS011;54072;47.410;8.446;2023-07-29T04:55:02;8.90;;;6.20;;
9142;SDS011;54072;47.410;8.446;2023-07-29T04:57:29;7.00;;;6.30;;
9142;SDS011;54072;47.410;8.446;2023-07-29T04:59:57;7.13;;;5.90;;
9142;SDS011;54072;47.410;8.446;2023-07-29T05:02:24;6.33;;;5.73;;
9142;SDS011;54072;47.410;8.446;2023-07-29T05:04:52;6.33;;;5.63;;
9142;SDS011;54072;47.410;8.446;2023-07-29T05:07:19;6.70;;;5.47;;
9142;SDS011;54072;47.410;8.446;2023-07-29T05:09:48;6.10;;;5.60;;
9142;SDS011;54072;47.410;8.446;2023-07-29T05:12:16;6.23;;;5.63;;
9142;SDS011;54072;47.410;8.446;2023-07-29T05:14:43;6.03;;;5.50;;
9142;SDS011;54072;47.410;8.446;2023-07-29T05:17:11;5.97;;;5.47;;
9142;SDS011;54072;47.410;8.446;2023-07-29T05:19:38;7.37;;;5.20;;
9142;SDS011;54072;47.410;8.446;2023-07-29T05:22:06;5.73;;;5.13;;
9142;SDS011;54072;47.410;8.446;2023-07-29T05:24:34;5.73;;;5.23;;
9142;SDS011;54072;47.410;8.446;2023-07-29T05:27:03;6.23;;;5.57;;
9142;SDS011;54072;47.410;8.446;2023-07-29T05:29:30;5.73;;;5.17;;
9142;SDS011;54072;47.410;8.446;2023-07-29T05:31:58;7.20;;;4.90;;
9142;SDS011;54072;47.410;8.446;2023-07-29T05:34:26;5.43;;;4.93;;
9142;SDS011;54072;47.410;8.446;2023-07-29T05:36:53;6.17;;;5.37;;
9142;SDS011;54072;47.410;8.446;2023-07-29T05:39:21;6.00;;;4.97;;
9142;SDS011;54072;47.410;8.446;2023-07-29T05:41:48;6.43;;;5.10;;
9142;SDS011;54072;47.410;8.446;2023-07-29T05:44:17;6.37;;;5.17;;
9142;SDS011;54072;47.410;8.446;2023-07-29T05:46:45;5.20;;;4.70;;
9142;SDS011;54072;47.410;8.446;2023-07-29T05:49:12;5.73;;;5.20;;
9142;SDS011;54072;47.410;8.446;2023-07-29T05:51:40;5.47;;;4.97;;
9142;SDS011;54072;47.410;8.446;2023-07-29T05:54:07;5.97;;;5.13;;
9142;SDS011;54072;47.410;8.446;2023-07-29T05:56:35;6.33;;;5.00;;
9142;SDS011;54072;47.410;8.446;2023-07-29T05:59:02;7.90;;;5.20;;
9142;SDS011;54072;47.410;8.446;2023-07-29T06:01:31;5.43;;;4.93;;
9142;SDS011;54072;47.410;8.446;2023-07-29T06:03:59;5.00;;;4.60;;
9142;SDS011;54072;47.410;8.446;2023-07-29T06:06:27;6.27;;;4.77;;
9142;SDS011;54072;47.410;8.446;2023-07-29T06:08:54;5.60;;;5.10;;
9142;SDS011;54072;47.410;8.446;2023-07-29T06:11:22;4.97;;;4.57;;
9142;SDS011;54072;47.410;8.446;2023-07-29T06:13:49;7.10;;;4.60;;
9142;SDS011;54072;47.410;8.446;2023-07-29T06:16:17;5.33;;;4.83;;
9142;SDS011;54072;47.410;8.446;2023-07-29T06:18:46;4.70;;;4.30;;
9142;SDS011;54072;47.410;8.446;2023-07-29T06:21:14;7.77;;;4.60;;
9142;SDS011;54072;47.410;8.446;2023-07-29T06:23:43;5.40;;;4.90;;
9142;SDS011;54072;47.410;8.446;2023-07-29T06:26:11;5.83;;;4.60;;
9142;SDS011;54072;47.410;8.446;2023-07-29T06:28:38;5.30;;;4.87;;
9142;SDS011;54072;47.410;8.446;2023-07-29T06:31:06;5.50;;;4.97;;
9142;SDS011;54072;47.410;8.446;2023-07-29T06:33:33;6.27;;;4.73;;
9142;SDS011;54072;47.410;8.446;2023-07-29T06:36:03;6.03;;;4.33;;
9142;SDS011;54072;47.410;8.446;2023-07-29T06:38:30;5.57;;;4.90;;
9142;SDS011;54072;47.410;8.446;2023-07-29T06:40:58;5.23;;;4.73;;
9142;SDS011;54072;47.410;8.446;2023-07-29T06:43:26;5.37;;;4.83;;
9142;SDS011;54072;47.410;8.446;2023-07-29T06:45:53;4.70;;;4.30;;
9142;SDS011;54072;47.410;8.446;2023-07-29T06:48:21;5.20;;;4.70;;
9142;SDS011;54072;47.410;8.446;2023-07-29T06:50:49;5.30;;;4.80;;
9142;SDS011;54072;47.410;8.446;2023-07-29T06:53:18;5.10;;;4.60;;
9142;SDS011;54072;47.410;8.446;2023-07-29T06:55:45;6.10;;;4.97;;
9142;SDS011;54072;47.410;8.446;2023-07-29T06:58:13;5.37;;;4.87;;
9142;SDS011;54072;47.410;8.446;2023-07-29T07:00:41;4.73;;;4.20;;
9142;SDS011;54072;47.410;8.446;2023-07-29T07:03:08;5.13;;;4.63;;
9142;SDS011;54072;47.410;8.446;2023-07-29T07:05:36;5.43;;;4.40;;
9142;SDS011;54072;47.410;8.446;2023-07-29T07:08:03;4.97;;;4.47;;
9142;SDS011;54072;47.410;8.446;2023-07-29T07:10:32;5.20;;;4.70;;
9142;SDS011;54072;47.410;8.446;2023-07-29T07:13:00;5.30;;;4.47;;
9142;SDS011;54072;47.410;8.446;2023-07-29T07:15:28;4.88;;;4.38;;
9142;SDS011;54072;47.410;8.446;2023-07-29T07:17:56;4.80;;;4.30;;
9142;SDS011;54072;47.410;8.446;2023-07-29T07:20:23;4.82;;;4.32;;
9142;SDS011;54072;47.410;8.446;2023-07-29T07:22:51;5.38;;;4.75;;
9142;SDS011;54072;47.410;8.446;2023-07-29T07:25:18;4.63;;;4.22;;
9142;SDS011;54072;47.410;8.446;2023-07-29T07:27:47;5.68;;;4.78;;
9142;SDS011;54072;47.410;8.446;2023-07-29T07:30:15;5.57;;;4.70;;
9142;SDS011;54072;47.410;8.446;2023-07-29T07:32:43;4.45;;;4.15;;
9142;SDS011;54072;47.410;8.446;2023-07-29T07:35:11;5.10;;;4.60;;
9142;SDS011;54072;47.410;8.446;2023-07-29T07:37:39;5.30;;;4.80;;
9142;SDS011;54072;47.410;8.446;2023-07-29T07:40:06;4.85;;;4.45;;
9142;SDS011;54072;47.410;8.446;2023-07-29T07:42:34;5.10;;;4.60;;
9142;SDS011;54072;47.410;8.446;2023-07-29T07:45:03;4.75;;;4.35;;
9142;SDS011;54072;47.410;8.446;2023-07-29T07:47:31;5.70;;;4.85;;
9142;SDS011;54072;47.410;8.446;2023-07-29T07:49:59;4.95;;;4.45;;
9142;SDS011;54072;47.410;8.446;2023-07-29T07:52:27;5.28;;;4.78;;
9142;SDS011;54072;47.410;8.446;2023-07-29T07:54:55;5.70;;;4.47;;
9142;SDS011;54072;47.410;8.446;2023-07-29T07:57:22;4.95;;;4.38;;
9142;SDS011;54072;47.410;8.446;2023-07-29T07:59:50;4.85;;;4.38;;
9142;SDS011;54072;47.410;8.446;2023-07-29T08:02:20;5.25;;;4.75;;
9142;SDS011;54072;47.410;8.446;2023-07-29T08:04:47;4.72;;;4.32;;
9142;SDS011;54072;47.410;8.446;2023-07-29T08:07:15;5.05;;;4.43;;
9142;SDS011;54072;47.410;8.446;2023-07-29T08:09:43;5.38;;;4.88;;
9142;SDS011;54072;47.410;8.446;2023-07-29T08:12:10;5.60;;;5.07;;
9142;SDS011;54072;47.410;8.446;2023-07-29T08:14:37;5.40;;;4.90;;
9142;SDS011;54072;47.410;8.446;2023-07-29T08:17:05;5.88;;;4.68;;
9142;SDS011;54072;47.410;8.446;2023-07-29T08:19:34;5.68;;;5.18;;
9142;SDS011;54072;47.410;8.446;2023-07-29T08:22:02;5.75;;;5.25;;
9142;SDS011;54072;47.410;8.446;2023-07-29T08:24:29;5.07;;;4.68;;
9142;SDS011;54072;47.410;8.446;2023-07-29T08:26:57;4.82;;;4.43;;
9142;SDS011;54072;47.410;8.446;2023-07-29T08:29:24;6.35;;;5.07;;
9142;SDS011;54072;47.410;8.446;2023-07-29T08:31:52;5.93;;;4.78;;
9142;SDS011;54072;47.410;8.446;2023-07-29T08:34:21;5.97;;;5.35;;
9142;SDS011;54072;47.410;8.446;2023-07-29T08:36:50;5.65;;;4.50;;
9142;SDS011;54072;47.410;8.446;2023-07-29T08:39:18;5.43;;;4.88;;
9142;SDS011;54072;47.410;8.446;2023-07-29T08:41:48;5.13;;;4.63;;
9142;SDS011;54072;47.410;8.446;2023-07-29T08:44:18;5.03;;;4.53;;
9142;SDS011;54072;47.410;8.446;2023-07-29T08:46:48;5.00;;;4.50;;
9142;SDS011;54072;47.410;8.446;2023-07-29T08:49:16;5.13;;;4.63;;
9142;SDS011;54072;47.410;8.446;2023-07-29T08:51:46;5.80;;;4.43;;
9142;SDS011;54072;47.410;8.446;2023-07-29T08:54:15;4.68;;;4.15;;
9142;SDS011;54072;47.410;8.446;2023-07-29T08:56:42;4.68;;;4.10;;
9142;SDS011;54072;47.410;8.446;2023-07-29T08:59:10;4.43;;;4.00;;
9142;SDS011;54072;47.410;8.446;2023-07-29T09:01:38;6.32;;;4.07;;
9142;SDS011;54072;47.410;8.446;2023-07-29T09:04:06;4.00;;;3.60;;
9142;SDS011;54072;47.410;8.446;2023-07-29T09:06:34;4.18;;;3.88;;
9142;SDS011;54072;47.410;8.446;2023-07-29T09:09:02;4.18;;;3.78;;
9142;SDS011;54072;47.410;8.446;2023-07-29T09:11:31;5.40;;;3.80;;
9142;SDS011;54072;47.410;8.446;2023-07-29T09:13:59;4.32;;;3.90;;
9142;SDS011;54072;47.410;8.446;2023-07-29T09:16:27;4.30;;;3.95;;
9142;SDS011;54072;47.410;8.446;2023-07-29T09:18:54;4.22;;;3.90;;
9142;SDS011;54072;47.410;8.446;2023-07-29T09:21:24;5.97;;;4.20;;
9142;SDS011;54072;47.410;8.446;2023-07-29T09:23:53;4.25;;;3.85;;
9142;SDS011;54072;47.410;8.446;2023-07-29T09:26:24;5.22;;;4.22;;
9142;SDS011;54072;47.410;8.446;2023-07-29T09:28:53;4.55;;;4.07;;
9142;SDS011;54072;47.410;8.446;2023-07-29T09:31:21;6.07;;;4.40;;
9142;SDS011;54072;47.410;8.446;2023-07-29T09:33:49;4.80;;;4.18;;
9142;SDS011;54072;47.410;8.446;2023-07-29T09:36:16;4.63;;;3.85;;
9142;SDS011;54072;47.410;8.446;2023-07-29T09:38:44;3.80;;;3.47;;
9142;SDS011;54072;47.410;8.446;2023-07-29T09:41:12;4.75;;;3.92;;
9142;SDS011;54072;47.410;8.446;2023-07-29T09:43:40;4.43;;;3.92;;
9142;SDS011;54072;47.410;8.446;2023-07-29T09:46:09;4.75;;;3.78;;
9142;SDS011;54072;47.410;8.446;2023-07-29T09:48:37;4.13;;;3.70;;
9142;SDS011;54072;47.410;8.446;2023-07-29T09:51:11;6.05;;;4.18;;
9142;SDS011;54072;47.410;8.446;2023-07-29T09:53:39;4.20;;;3.80;;
9142;SDS011;54072;47.410;8.446;2023-07-29T09:56:07;4.10;;;3.80;;
9142;SDS011;54072;47.410;8.446;2023-07-29T09:58:35;4.72;;;4.07;;
9142;SDS011;54072;47.410;8.446;2023-07-29T10:01:04;3.92;;;3.63;;
9142;SDS011;54072;47.410;8.446;2023-07-29T10:03:33;4.30;;;3.90;;
9142;SDS011;54072;47.410;8.446;2023-07-29T10:06:02;4.53;;;4.15;;
9142;SDS011;54072;47.410;8.446;2023-07-29T10:08:30;4.40;;;3.63;;
9142;SDS011;54072;47.410;8.446;2023-07-29T10:10:58;4.95;;;3.85;;
9142;SDS011;54072;47.410;8.446;2023-07-29T10:13:26;3.70;;;3.40;;
9142;SDS011;54072;47.410;8.446;2023-07-29T10:15:54;5.63;;;3.70;;
9142;SDS011;54072;47.410;8.446;2023-07-29T10:18:22;5.80;;;3.85;;
9142;SDS011;54072;47.410;8.446;2023-07-29T10:20:51;4.10;;;3.70;;
9142;SDS011;54072;47.410;8.446;2023-07-29T10:23:19;4.07;;;3.75;;
9142;SDS011;54072;47.410;8.446;2023-07-29T10:25:49;4.15;;;3.83;;
9142;SDS011;54072;47.410;8.446;2023-07-29T10:28:17;4.10;;;3.67;;
9142;SDS011;54072;47.410;8.446;2023-07-29T10:30:47;3.83;;;3.53;;
9142;SDS011;54072;47.410;8.446;2023-07-29T10:33:15;4.00;;;3.60;;
9142;SDS011;54072;47.410;8.446;2023-07-29T10:35:43;4.10;;;3.80;;
9142;SDS011;54072;47.410;8.446;2023-07-29T10:38:12;5.05;;;3.47;;
9142;SDS011;54072;47.410;8.446;2023-07-29T10:40:43;3.97;;;3.65;;
9142;SDS011;54072;47.410;8.446;2023-07-29T10:43:11;3.95;;;3.65;;
9142;SDS011;54072;47.410;8.446;2023-07-29T10:45:41;4.88;;;3.80;;
9142;SDS011;54072;47.410;8.446;2023-07-29T10:48:10;4.35;;;3.95;;
9142;SDS011;54072;47.410;8.446;2023-07-29T10:50:37;6.13;;;3.80;;
9142;SDS011;54072;47.410;8.446;2023-07-29T10:53:05;4.38;;;3.97;;
9142;SDS011;54072;47.410;8.446;2023-07-29T10:55:35;4.22;;;3.83;;
9142;SDS011;54072;47.410;8.446;2023-07-29T10:58:04;4.07;;;3.67;;
9142;SDS011;54072;47.410;8.446;2023-07-29T11:00:31;4.30;;;3.90;;
9142;SDS011;54072;47.410;8.446;2023-07-29T11:02:59;4.22;;;3.92;;
9142;SDS011;54072;47.410;8.446;2023-07-29T11:05:41;4.65;;;4.25;;
9142;SDS011;54072;47.410;8.446;2023-07-29T11:08:15;4.00;;;3.70;;
9142;SDS011;54072;47.410;8.446;2023-07-29T11:10:45;4.53;;;3.90;;
9142;SDS011;54072;47.410;8.446;2023-07-29T11:13:25;4.50;;;4.10;;
9142;SDS011;54072;47.410;8.446;2023-07-29T11:15:53;4.40;;;4.00;;
9142;SDS011;54072;47.410;8.446;2023-07-29T11:18:21;4.50;;;4.10;;
9142;SDS011;54072;47.410;8.446;2023-07-29T11:20:48;4.75;;;4.35;;
9142;SDS011;54072;47.410;8.446;2023-07-29T11:23:16;5.88;;;4.30;;
9142;SDS011;54072;47.410;8.446;2023-07-29T11:25:45;5.45;;;4.63;;
9142;SDS011;54072;47.410;8.446;2023-07-29T11:28:12;6.22;;;4.60;;
9142;SDS011;54072;47.410;8.446;2023-07-29T11:30:40;7.82;;;4.57;;
9142;SDS011;54072;47.410;8.446;2023-07-29T11:33:07;4.78;;;3.85;;
9142;SDS011;54072;47.410;8.446;2023-07-29T11:35:38;6.43;;;4.13;;
9142;SDS011;54072;47.410;8.446;2023-07-29T11:38:05;4.68;;;3.80;;
9142;SDS011;54072;47.410;8.446;2023-07-29T11:40:34;4.43;;;3.72;;
9142;SDS011;54072;47.410;8.446;2023-07-29T11:43:03;4.20;;;3.50;;
9142;SDS011;54072;47.410;8.446;2023-07-29T11:45:30;4.63;;;3.80;;
9142;SDS011;54072;47.410;8.446;2023-07-29T11:48:04;4.80;;;3.78;;
9142;SDS011;54072;47.410;8.446;2023-07-29T11:50:32;4.85;;;3.60;;
9142;SDS011;54072;47.410;8.446;2023-07-29T11:53:00;3.75;;;3.35;;
9142;SDS011;54072;47.410;8.446;2023-07-29T11:55:27;4.82;;;3.90;;
9142;SDS011;54072;47.410;8.446;2023-07-29T11:57:55;5.93;;;3.88;;
9142;SDS011;54072;47.410;8.446;2023-07-29T12:00:24;5.65;;;3.55;;
9142;SDS011;54072;47.410;8.446;2023-07-29T12:02:52;4.05;;;3.40;;
9142;SDS011;54072;47.410;8.446;2023-07-29T12:05:21;3.70;;;3.35;;
9142;SDS011;54072;47.410;8.446;2023-07-29T12:07:49;3.83;;;3.38;;
9142;SDS011;54072;47.410;8.446;2023-07-29T12:10:17;3.97;;;3.25;;
9142;SDS011;54072;47.410;8.446;2023-07-29T12:12:45;3.50;;;3.20;;
9142;SDS011;54072;47.410;8.446;2023-07-29T12:15:13;3.50;;;3.20;;
9142;SDS011;54072;47.410;8.446;2023-07-29T12:17:42;3.60;;;3.30;;
9142;SDS011;54072;47.410;8.446;2023-07-29T12:20:10;3.65;;;3.35;;
9142;SDS011;54072;47.410;8.446;2023-07-29T12:22:38;3.92;;;3.63;;
9142;SDS011;54072;47.410;8.446;2023-07-29T12:25:06;7.28;;;3.92;;
9142;SDS011;54072;47.410;8.446;2023-07-29T12:27:34;4.95;;;4.47;;
9142;SDS011;54072;47.410;8.446;2023-07-29T12:30:02;4.75;;;4.35;;
9142;SDS011;54072;47.410;8.446;2023-07-29T12:32:30;4.45;;;3.90;;
9142;SDS011;54072;47.410;8.446;2023-07-29T12:34:59;3.90;;;3.57;;
9142;SDS011;54072;47.410;8.446;2023-07-29T12:37:30;4.53;;;3.67;;
9142;SDS011;54072;47.410;8.446;2023-07-29T12:39:58;4.00;;;3.40;;
9142;SDS011;54072;47.410;8.446;2023-07-29T12:42:26;6.77;;;4.00;;
9142;SDS011;54072;47.410;8.446;2023-07-29T12:44:53;8.93;;;2.90;;
9142;SDS011;54072;47.410;8.446;2023-07-29T12:47:21;2.27;;;2.07;;
9142;SDS011;54072;47.410;8.446;2023-07-29T12:49:48;3.07;;;2.20;;
9142;SDS011;54072;47.410;8.446;2023-07-29T12:52:17;5.53;;;2.60;;
9142;SDS011;54072;47.410;8.446;2023-07-29T12:54:45;3.37;;;2.63;;
9142;SDS011;54072;47.410;8.446;2023-07-29T12:57:12;4.57;;;3.07;;
9142;SDS011;54072;47.410;8.446;2023-07-29T12:59:40;4.10;;;3.20;;
9142;SDS011;54072;47.410;8.446;2023-07-29T13:02:07;4.43;;;3.40;;
9142;SDS011;54072;47.410;8.446;2023-07-29T13:04:35;7.13;;;3.43;;
9142;SDS011;54072;47.410;8.446;2023-07-29T13:07:03;6.50;;;3.73;;
9142;SDS011;54072;47.410;8.446;2023-07-29T13:09:32;4.17;;;3.53;;
9142;SDS011;54072;47.410;8.446;2023-07-29T13:12:00;4.73;;;3.10;;
9142;SDS011;54072;47.410;8.446;2023-07-29T13:14:28;5.53;;;3.50;;
9142;SDS011;54072;47.410;8.446;2023-07-29T13:16:55;6.53;;;3.27;;
9142;SDS011;54072;47.410;8.446;2023-07-29T13:19:23;3.90;;;3.13;;
9142;SDS011;54072;47.410;8.446;2023-07-29T13:21:51;3.57;;;3.27;;
9142;SDS011;54072;47.410;8.446;2023-07-29T13:24:18;4.23;;;3.00;;
9142;SDS011;54072;47.410;8.446;2023-07-29T13:26:47;4.63;;;2.97;;
9142;SDS011;54072;47.410;8.446;2023-07-29T13:29:14;4.90;;;3.10;;
9142;SDS011;54072;47.410;8.446;2023-07-29T13:31:42;2.70;;;2.50;;
9142;SDS011;54072;47.410;8.446;2023-07-29T13:34:09;4.00;;;2.90;;
9142;SDS011;54072;47.410;8.446;2023-07-29T13:36:37;2.80;;;2.60;;
9142;SDS011;54072;47.410;8.446;2023-07-29T13:39:05;4.27;;;3.27;;
9142;SDS011;54072;47.410;8.446;2023-07-29T13:41:32;3.33;;;3.00;;
9142;SDS011;54072;47.410;8.446;2023-07-29T13:44:01;4.00;;;3.30;;
9142;SDS011;54072;47.410;8.446;2023-07-29T13:46:29;3.33;;;2.80;;
9142;SDS011;54072;47.410;8.446;2023-07-29T13:48:56;4.37;;;3.20;;
9142;SDS011;54072;47.410;8.446;2023-07-29T13:51:24;5.07;;;3.13;;
9142;SDS011;54072;47.410;8.446;2023-07-29T13:53:51;4.43;;;3.37;;
9142;SDS011;54072;47.410;8.446;2023-07-29T13:56:19;5.67;;;3.80;;
9142;SDS011;54072;47.410;8.446;2023-07-29T13:58:46;4.97;;;3.30;;
9142;SDS011;54072;47.410;8.446;2023-07-29T14:01:15;3.50;;;3.00;;
9142;SDS011;54072;47.410;8.446;2023-07-29T14:03:43;3.50;;;3.00;;
9142;SDS011;54072;47.410;8.446;2023-07-29T14:06:11;4.17;;;3.07;;
9142;SDS011;54072;47.410;8.446;2023-07-29T14:08:38;3.40;;;2.80;;
9142;SDS011;54072;47.410;8.446;2023-07-29T14:11:07;3.77;;;3.37;;
9142;SDS011;54072;47.410;8.446;2023-07-29T14:13:34;6.53;;;3.83;;
9142;SDS011;54072;47.410;8.446;2023-07-29T14:16:02;4.97;;;3.90;;
9142;SDS011;54072;47.410;8.446;2023-07-29T14:18:31;5.80;;;3.20;;
9142;SDS011;54072;47.410;8.446;2023-07-29T14:20:59;3.83;;;3.20;;
9142;SDS011;54072;47.410;8.446;2023-07-29T14:23:26;3.67;;;3.20;;
9142;SDS011;54072;47.410;8.446;2023-07-29T14:25:54;3.47;;;3.10;;
9142;SDS011;54072;47.410;8.446;2023-07-29T14:28:21;3.03;;;2.80;;
9142;SDS011;54072;47.410;8.446;2023-07-29T14:30:49;5.07;;;3.43;;
9142;SDS011;54072;47.410;8.446;2023-07-29T14:33:16;3.17;;;2.90;;
9142;SDS011;54072;47.410;8.446;2023-07-29T14:35:45;3.30;;;3.00;;
9142;SDS011;54072;47.410;8.446;2023-07-29T14:38:13;3.40;;;3.00;;
9142;SDS011;54072;47.410;8.446;2023-07-29T14:40:40;3.37;;;3.03;;
9142;SDS011;54072;47.410;8.446;2023-07-29T14:43:08;3.77;;;2.67;;
9142;SDS011;54072;47.410;8.446;2023-07-29T14:45:35;3.53;;;3.23;;
9142;SDS011;54072;47.410;8.446;2023-07-29T14:48:03;5.07;;;3.40;;
9142;SDS011;54072;47.410;8.446;2023-07-29T14:50:32;5.20;;;3.13;;
9142;SDS011;54072;47.410;8.446;2023-07-29T14:53:01;3.00;;;2.60;;
9142;SDS011;54072;47.410;8.446;2023-07-29T14:55:28;3.40;;;2.67;;
9142;SDS011;54072;47.410;8.446;2023-07-29T14:57:56;3.53;;;2.90;;
9142;SDS011;54072;47.410;8.446;2023-07-29T15:00:24;4.63;;;2.80;;
9142;SDS011;54072;47.410;8.446;2023-07-29T15:02:51;2.77;;;2.47;;
9142;SDS011;54072;47.410;8.446;2023-07-29T15:05:19;3.30;;;3.00;;